Time;durP1;ratioP1;P1;durP2;ratioP2;P2;SDS_P1;SDS_P2;PMS_P1;PMS_P2;Temp;Humidity;BMP_temperature;BMP_pressure;BME280_temperature;BME280_humidity;BME280_pressure;Samples;Min_cycle;Max_cycle;Signal;HPM_P1;HPM_P2
2021/12/02 00:00:39;;;;;;;29.90;27.30;;;;;;;23.22;29.26;94616.69;4902626;28;102953;-68
2021/12/02 00:03:07;;;;;;;29.27;26.67;;;;;;;23.28;29.12;94615.41;4903407;28;103095;-67
2021/12/02 00:05:33;;;;;;;31.50;28.73;;;;;;;23.28;28.78;94626.06;4888765;28;103788;-67
2021/12/02 00:07:58;;;;;;;27.13;24.83;;;;;;;23.26;29.07;94633.59;4901060;28;104636;-67
2021/12/02 00:10:28;;;;;;;28.33;25.80;;;;;;;23.24;28.91;94617.16;4901285;28;103215;-67
2021/12/02 00:12:56;;;;;;;27.30;25.00;;;;;;;23.26;28.84;94618.41;4916762;28;103963;-66
2021/12/02 00:15:24;;;;;;;25.53;23.33;;;;;;;23.24;28.78;94617.16;4898266;28;104200;-66
2021/12/02 00:18:28;;;;;;;26.50;24.20;;;;;;;23.22;28.75;94628.13;4902420;28;104010;-67
2021/12/02 00:21:06;;;;;;;25.37;23.17;;;;;;;23.25;28.68;94642.72;4900024;28;102883;-66
2021/12/02 00:23:38;;;;;;;27.27;24.87;;;;;;;23.26;28.82;94646.94;4898003;28;105343;-66
2021/12/02 00:26:16;;;;;;;26.67;24.37;;;;;;;23.24;28.89;94654.47;4896724;28;103662;-65
2021/12/02 00:28:42;;;;;;;25.60;23.33;;;;;;;23.23;29.12;94639.56;4900253;28;103001;-66
2021/12/02 00:31:17;;;;;;;27.50;25.20;;;;;;;23.24;29.04;94630.47;4902323;28;102765;-66
2021/12/02 00:33:48;;;;;;;27.60;25.17;;;;;;;23.19;29.02;94628.78;4899676;28;105689;-67
2021/12/02 00:36:15;;;;;;;25.40;23.20;;;;;;;23.24;28.93;94635.81;4917233;28;104525;-66
2021/12/02 00:38:42;;;;;;;25.40;23.20;;;;;;;23.24;29.04;94635.81;4898738;28;103317;-66
2021/12/02 00:41:12;;;;;;;25.07;22.97;;;;;;;23.24;28.27;94641.16;4902862;28;102854;-66
2021/12/02 00:43:39;;;;;;;24.93;22.80;;;;;;;23.25;28.67;94643.50;4903025;28;102910;-66
2021/12/02 00:46:09;;;;;;;24.67;22.50;;;;;;;23.24;28.75;94635.81;4901842;28;104656;-67
2021/12/02 00:48:37;;;;;;;24.87;22.73;;;;;;;23.24;28.37;94643.81;4897203;28;103250;-66
2021/12/02 00:51:04;;;;;;;26.60;24.30;;;;;;;23.25;29.07;94645.38;4902370;28;103016;-66
2021/12/02 00:53:32;;;;;;;26.17;23.77;;;;;;;23.25;28.63;94642.72;4903463;28;103227;-66
2021/12/02 00:56:02;;;;;;;23.80;21.80;;;;;;;23.08;28.33;94606.22;4902825;28;102865;-67
2021/12/02 00:58:28;;;;;;;22.60;20.70;;;;;;;23.19;28.86;94610.13;4902041;28;102756;-66
2021/12/02 01:00:56;;;;;;;24.20;22.20;;;;;;;23.18;28.74;94621.06;4896311;28;102776;-66
2021/12/02 01:03:22;;;;;;;23.33;21.33;;;;;;;23.23;28.35;94613.72;4900767;28;105280;-66
2021/12/02 01:05:47;;;;;;;22.33;20.40;;;;;;;23.23;28.47;94618.25;4901052;28;102942;-66
2021/12/02 01:08:13;;;;;;;22.57;20.63;;;;;;;23.24;28.21;94630.47;4897731;28;103792;-66
2021/12/02 01:10:42;;;;;;;23.87;21.77;;;;;;;23.26;28.58;94634.38;4895541;28;103099;-66
2021/12/02 01:13:07;;;;;;;23.23;21.33;;;;;;;23.24;28.64;94635.81;4901116;28;103858;-65
2021/12/02 01:15:33;;;;;;;22.47;20.57;;;;;;;23.23;28.82;94632.38;4902894;28;102648;-66
2021/12/02 01:17:58;;;;;;;23.17;21.17;;;;;;;23.23;28.65;94634.25;4902990;28;102704;-67
2021/12/02 01:20:24;;;;;;;23.20;21.10;;;;;;;23.18;28.44;94634.38;4902016;28;102784;-66
2021/12/02 01:22:50;;;;;;;22.57;20.67;;;;;;;23.21;28.24;94636.44;4897410;28;104540;-67
2021/12/02 01:25:18;;;;;;;22.20;20.33;;;;;;;23.22;28.24;94649.47;4902650;28;102779;-67
2021/12/02 01:27:47;;;;;;;23.07;21.13;;;;;;;23.23;28.77;94655.56;4902085;28;103202;-66
2021/12/02 01:30:13;;;;;;;22.80;20.80;;;;;;;23.22;28.15;94646.78;4900825;28;102926;-66
2021/12/02 01:32:40;;;;;;;20.40;18.70;;;;;;;23.16;28.56;94625.94;4897228;28;102843;-66
2021/12/02 01:35:07;;;;;;;20.53;18.70;;;;;;;23.21;28.45;94634.56;4901957;28;102752;-66
2021/12/02 01:37:33;;;;;;;21.20;19.40;;;;;;;23.23;28.42;94635.03;4901914;28;102815;-66
2021/12/02 01:39:59;;;;;;;20.40;18.70;;;;;;;23.20;28.45;94635.66;4902678;28;102819;-66
2021/12/02 01:42:27;;;;;;;21.03;19.23;;;;;;;23.21;28.34;94649.78;4901805;28;102848;-66
2021/12/02 01:44:57;;;;;;;21.93;20.07;;;;;;;23.23;28.91;94644.91;4895867;28;103456;-66
2021/12/02 01:47:25;;;;;;;20.57;18.83;;;;;;;23.21;28.28;94631.91;4883390;28;102872;-67
2021/12/02 01:49:58;;;;;;;18.80;17.27;;;;;;;23.18;28.36;94627.22;4901596;28;102828;-67
2021/12/02 01:52:32;;;;;;;19.83;18.13;;;;;;;23.21;28.23;94631.13;4902002;28;103476;-66
2021/12/02 01:55:10;;;;;;;20.17;18.47;;;;;;;23.16;28.07;94621.38;4881957;28;102775;-67
2021/12/02 01:57:40;;;;;;;18.13;16.63;;;;;;;23.19;28.33;94623.44;4899421;28;103754;-66
2021/12/02 02:00:14;;;;;;;18.00;16.43;;;;;;;23.17;28.02;94604.28;4902735;28;103168;-66
2021/12/02 02:02:40;;;;;;;18.90;17.30;;;;;;;23.19;28.69;94615.44;4899413;28;103851;-66
2021/12/02 02:05:12;;;;;;;20.03;18.40;;;;;;;23.18;28.51;94605.88;4900111;28;103972;-66
2021/12/02 02:08:02;;;;;;;21.30;19.40;;;;;;;23.12;28.56;94593.81;4900606;28;103294;-66
2021/12/02 02:10:29;;;;;;;18.00;16.50;;;;;;;23.19;28.38;94609.34;4902285;28;102760;-69
2021/12/02 02:12:58;;;;;;;17.40;16.00;;;;;;;23.22;28.19;94608.69;4898785;28;106548;-68
2021/12/02 02:15:25;;;;;;;17.47;16.00;;;;;;;23.20;28.69;94601.03;4901208;28;103496;-69
2021/12/02 02:18:12;;;;;;;17.83;16.33;;;;;;;23.18;28.26;94591.75;4896483;28;103187;-69
2021/12/02 02:23:24;;;;;;;17.00;15.50;;;;;;;23.18;28.23;94581.91;4898084;28;103185;-69
2021/12/02 02:25:50;;;;;;;17.60;16.20;;;;;;;23.17;28.32;94595.53;4899039;28;105321;-69
2021/12/02 02:28:18;;;;;;;17.33;15.93;;;;;;;23.19;28.19;94606.66;4894824;28;102804;-69
2021/12/02 02:30:44;;;;;;;19.13;17.47;;;;;;;23.19;28.10;94598.69;4901503;28;103070;-69
2021/12/02 02:33:11;;;;;;;18.00;16.50;;;;;;;23.19;28.01;94596.78;4901762;28;102768;-69
2021/12/02 02:35:38;;;;;;;16.63;15.23;;;;;;;23.18;28.41;94581.09;4898705;28;104961;-69
2021/12/02 02:38:04;;;;;;;18.40;16.83;;;;;;;23.17;28.44;94601.63;4899256;28;104018;-68
2021/12/02 02:40:31;;;;;;;17.30;15.80;;;;;;;23.19;27.99;94617.31;4894680;28;102840;-69
2021/12/02 02:43:00;;;;;;;16.13;14.80;;;;;;;23.15;28.09;94601.16;4898545;28;106172;-69
2021/12/02 02:45:26;;;;;;;16.60;15.27;;;;;;;23.17;27.94;94603.50;4901783;28;103050;-66
2021/12/02 02:47:51;;;;;;;15.80;14.50;;;;;;;23.18;28.27;94586.41;4901191;28;102915;-66
2021/12/02 02:50:17;;;;;;;15.80;14.50;;;;;;;23.18;28.25;94607.75;4895129;28;102936;-67
2021/12/02 02:52:44;;;;;;;17.00;15.40;;;;;;;23.18;28.31;94589.91;4900629;28;103413;-66
2021/12/02 02:55:15;;;;;;;16.57;15.10;;;;;;;23.15;28.21;94595.84;4900556;28;102908;-66
2021/12/02 02:57:54;;;;;;;14.97;13.77;;;;;;;23.18;28.02;94623.72;4898793;28;103143;-66
2021/12/02 03:00:26;;;;;;;15.70;14.50;;;;;;;23.16;28.38;94600.06;4897383;28;103003;-66
2021/12/02 03:05:32;;;;;;;16.50;15.10;;;;;;;23.17;27.93;94592.84;4900533;28;102969;-67
2021/12/02 03:08:10;;;;;;;16.40;14.97;;;;;;;23.15;28.11;94592.38;4899460;28;104141;-67
2021/12/02 03:10:49;;;;;;;15.60;14.20;;;;;;;23.19;27.86;94601.34;4902393;28;103968;-66
2021/12/02 03:13:35;;;;;;;14.40;13.20;;;;;;;23.15;28.25;94589.72;4894477;28;106154;-66
2021/12/02 03:18:44;;;;;;;16.60;15.20;;;;;;;23.18;28.44;94581.91;4900196;28;102861;-67
2021/12/02 03:21:21;;;;;;;16.60;15.20;;;;;;;23.15;27.94;94587.84;4899670;28;102931;-66
2021/12/02 03:23:54;;;;;;;16.30;15.00;;;;;;;23.13;28.08;94589.25;4893780;28;104383;-66
2021/12/02 03:26:20;;;;;;;16.27;14.87;;;;;;;23.09;28.25;94560.59;4900452;28;103015;-66
2021/12/02 03:28:50;;;;;;;15.20;13.97;;;;;;;23.13;27.94;94575.94;4900828;28;103358;-65
2021/12/02 03:31:16;;;;;;;16.37;14.97;;;;;;;23.13;28.23;94583.94;4901895;28;102829;-67
2021/12/02 03:33:43;;;;;;;15.47;14.13;;;;;;;23.10;28.40;94564.81;4896879;28;105524;-66
2021/12/02 03:36:10;;;;;;;15.97;14.47;;;;;;;23.11;28.24;94592.25;4901804;28;104413;-67
2021/12/02 03:38:36;;;;;;;15.00;13.70;;;;;;;23.01;28.51;94569.41;4904413;28;103016;-66
2021/12/02 03:41:02;;;;;;;14.80;13.60;;;;;;;23.11;28.27;94585.03;4901969;28;102850;-66
2021/12/02 03:43:36;;;;;;;14.90;13.70;;;;;;;23.09;27.89;94571.25;4903221;28;103000;-66
2021/12/02 03:46:03;;;;;;;13.70;12.60;;;;;;;23.13;27.91;94575.94;4898788;28;103391;-66
2021/12/02 03:48:28;;;;;;;14.87;13.60;;;;;;;23.10;28.04;94562.16;4901379;28;104679;-66
2021/12/02 03:50:55;;;;;;;14.90;13.60;;;;;;;23.13;27.76;94567.94;4904616;28;102639;-66
2021/12/02 03:53:21;;;;;;;14.90;13.60;;;;;;;23.08;28.02;94569.69;4904135;28;103800;-66
2021/12/02 03:55:46;;;;;;;13.87;12.67;;;;;;;23.13;27.89;94575.94;4898268;28;102887;-66
2021/12/02 03:58:12;;;;;;;14.13;12.93;;;;;;;23.06;27.86;94560.44;4904150;28;103158;-67
2021/12/02 04:00:37;;;;;;;14.23;13.10;;;;;;;23.11;27.93;94577.03;4904119;28;103281;-66
2021/12/02 04:03:03;;;;;;;13.50;12.30;;;;;;;23.07;27.62;94562.00;4903321;28;102861;-66
2021/12/02 04:05:28;;;;;;;13.90;12.63;;;;;;;23.07;27.80;94556.69;4903864;28;102904;-66
2021/12/02 04:07:54;;;;;;;15.07;13.73;;;;;;;23.09;28.04;94560.59;4897557;28;102962;-66
2021/12/02 04:10:21;;;;;;;13.43;12.33;;;;;;;23.11;27.79;94549.59;4901901;28;102864;-66
2021/12/02 04:13:25;;;;;;;14.57;13.37;;;;;;;23.04;28.05;94534.13;4904953;28;102740;-66
2021/12/02 04:15:42;;;;;;;14.80;13.40;;;;;;;23.11;28.10;94560.28;4901069;28;103296;-69
2021/12/02 04:18:08;;;;;;;13.30;12.20;;;;;;;23.17;27.61;94564.31;4896657;28;104768;-70
2021/12/02 04:20:34;;;;;;;12.80;11.73;;;;;;;23.19;27.52;94543.50;4904316;28;103320;-68
2021/12/02 04:23:00;;;;;;;12.40;11.40;;;;;;;23.20;27.90;94550.38;4903351;28;102674;-67
2021/12/02 04:25:26;;;;;;;12.57;11.50;;;;;;;23.16;27.73;94559.31;4902624;28;102729;-68
2021/12/02 04:27:53;;;;;;;12.00;10.90;;;;;;;23.17;27.93;94550.22;4902685;28;102535;-69
2021/12/02 04:30:24;;;;;;;13.17;12.03;;;;;;;23.10;28.15;94567.47;4898688;28;102817;-68
2021/12/02 04:32:50;;;;;;;11.33;10.33;;;;;;;23.05;28.31;94546.34;4907184;28;105876;-69
2021/12/02 04:35:17;;;;;;;11.17;10.23;;;;;;;23.04;28.32;94544.78;4901692;28;105636;-70
2021/12/02 04:37:44;;;;;;;11.83;10.83;;;;;;;23.02;28.16;94546.19;4904231;28;103229;-70
2021/12/02 04:40:11;;;;;;;10.17;9.27;;;;;;;23.04;28.51;94555.44;4898231;28;103391;-69
2021/12/02 04:42:38;;;;;;;10.53;9.73;;;;;;;23.03;28.39;94540.56;4903176;28;102670;-71
2021/12/02 04:45:05;;;;;;;10.33;9.37;;;;;;;23.03;28.19;94551.22;4903615;28;103517;-68
2021/12/02 04:47:30;;;;;;;10.40;9.50;;;;;;;23.02;28.86;94552.31;4903061;28;103016;-69
2021/12/02 04:49:56;;;;;;;11.03;9.93;;;;;;;22.96;28.65;94561.53;4902067;28;104587;-68
2021/12/02 04:52:21;;;;;;;10.17;9.17;;;;;;;22.87;28.76;94544.81;4898076;28;103472;-68
2021/12/02 04:54:47;;;;;;;11.50;10.40;;;;;;;22.90;28.96;94546.84;4903722;28;103470;-68
2021/12/02 04:57:12;;;;;;;11.90;10.30;;;;;;;22.79;28.77;94549.00;4897963;28;103621;-68
2021/12/02 04:59:38;;;;;;;12.83;10.17;;;;;;;22.85;28.83;94544.34;4895123;28;103117;-69
2021/12/02 05:02:03;;;;;;;10.77;9.67;;;;;;;22.85;28.59;94533.69;4895320;28;103220;-67
2021/12/02 05:04:29;;;;;;;11.47;9.50;;;;;;;22.91;28.54;94535.09;4897564;28;105592;-67
2021/12/02 05:06:55;;;;;;;9.90;9.00;;;;;;;22.96;28.44;94534.91;4887140;28;104094;-68
2021/12/02 05:09:20;;;;;;;10.10;9.20;;;;;;;22.95;28.70;94530.69;4902430;28;102740;-68
2021/12/02 05:11:46;;;;;;;9.93;9.03;;;;;;;23.07;29.04;94530.81;4902423;28;103356;-67
2021/12/02 05:14:12;;;;;;;14.00;10.27;;;;;;;23.11;28.89;94525.63;4898410;28;102751;-69
2021/12/02 05:16:39;;;;;;;11.40;9.33;;;;;;;23.21;28.84;94527.19;4897301;28;103375;-68
2021/12/02 05:19:05;;;;;;;11.23;10.13;;;;;;;23.21;29.16;94513.84;4893668;28;102944;-67
2021/12/02 05:21:30;;;;;;;9.77;8.87;;;;;;;23.24;29.09;94526.53;4900799;28;102780;-69
2021/12/02 05:23:56;;;;;;;10.00;9.10;;;;;;;23.24;29.33;94529.97;4896393;28;103717;-70
2021/12/02 05:26:23;;;;;;;11.10;9.53;;;;;;;23.29;29.51;94523.69;4902611;28;102729;-72
2021/12/02 05:28:49;;;;;;;11.30;10.13;;;;;;;23.16;30.02;94522.78;4896933;28;102921;-69
2021/12/02 05:31:15;;;;;;;10.50;9.50;;;;;;;23.17;29.83;94526.22;4885516;28;103152;-69
2021/12/02 05:33:41;;;;;;;11.47;10.27;;;;;;;23.06;29.93;94518.59;4909017;28;104755;-68
2021/12/02 05:36:06;;;;;;;10.50;9.60;;;;;;;23.10;29.96;94524.06;4898701;28;103850;-68
2021/12/02 05:38:32;;;;;;;11.83;10.73;;;;;;;23.09;29.92;94527.84;4903183;28;102780;-68
2021/12/02 05:40:57;;;;;;;11.00;10.10;;;;;;;23.08;29.58;94511.06;4916910;28;104240;-68
2021/12/02 05:43:23;;;;;;;11.50;10.40;;;;;;;23.01;30.00;94513.44;4901274;28;104393;-67
2021/12/02 05:45:48;;;;;;;12.00;10.90;;;;;;;23.05;30.05;94519.69;4897845;28;103692;-68
2021/12/02 05:48:14;;;;;;;11.13;10.13;;;;;;;22.83;30.00;94485.25;4901141;28;103110;-68
2021/12/02 05:50:40;;;;;;;12.10;11.10;;;;;;;23.02;29.95;94511.56;4901229;28;102710;-68
2021/12/02 05:53:05;;;;;;;12.60;11.50;;;;;;;22.98;29.97;94516.72;4899247;28;104494;-68
2021/12/02 05:55:31;;;;;;;11.47;10.53;;;;;;;22.98;29.92;94519.38;4914485;28;103633;-68
2021/12/02 05:57:56;;;;;;;13.73;11.20;;;;;;;22.98;29.63;94516.72;4897213;28;102842;-69
2021/12/02 06:00:22;;;;;;;12.93;10.33;;;;;;;22.95;29.91;94511.25;4915732;28;104250;-67
2021/12/02 06:02:47;;;;;;;11.43;10.33;;;;;;;23.04;29.55;94518.13;4902941;28;103480;-67
2021/12/02 06:05:19;;;;;;;11.10;10.10;;;;;;;23.09;29.11;94519.84;4902853;28;103347;-67
2021/12/02 06:07:49;;;;;;;12.00;10.80;;;;;;;23.17;29.19;94520.91;4898579;28;102808;-67
2021/12/02 06:10:14;;;;;;;11.80;10.80;;;;;;;23.15;28.98;94518.56;4902566;28;102714;-66
2021/12/02 06:12:40;;;;;;;11.10;10.07;;;;;;;23.19;28.95;94516.06;4903135;28;103583;-66
2021/12/02 06:15:06;;;;;;;11.43;10.33;;;;;;;23.19;29.10;94532.81;4903017;28;103325;-66
2021/12/02 06:17:33;;;;;;;11.00;10.10;;;;;;;23.23;28.83;94523.09;4900532;28;102710;-66
2021/12/02 06:19:58;;;;;;;11.20;10.10;;;;;;;23.26;28.52;94532.31;4895601;28;104672;-66
2021/12/02 06:22:24;;;;;;;10.33;9.43;;;;;;;23.26;28.58;94543.00;4902078;28;102820;-66
2021/12/02 06:25:06;;;;;;;10.37;9.57;;;;;;;23.20;28.31;94533.59;4902088;28;102754;-66
2021/12/02 06:27:31;;;;;;;10.73;9.80;;;;;;;23.24;28.24;94537.97;4903523;28;103209;-66
2021/12/02 06:29:57;;;;;;;11.10;10.10;;;;;;;23.25;28.46;94539.53;4895491;28;105639;-65
2021/12/02 06:32:22;;;;;;;10.00;9.20;;;;;;;23.27;28.15;94545.34;4902609;28;103219;-65
2021/12/02 06:34:48;;;;;;;10.87;9.93;;;;;;;23.23;28.12;94539.09;4901322;28;102737;-66
2021/12/02 06:37:13;;;;;;;10.93;9.93;;;;;;;23.30;28.10;94547.34;4902085;28;102756;-67
2021/12/02 06:39:39;;;;;;;11.30;10.40;;;;;;;23.22;28.36;94536.72;4900093;28;103088;-67
2021/12/02 06:42:04;;;;;;;13.50;11.07;;;;;;;23.31;27.83;94550.81;4896250;28;102833;-65
2021/12/02 06:44:30;;;;;;;11.77;10.73;;;;;;;23.31;27.86;94546.25;4915944;28;103728;-66
2021/12/02 06:46:56;;;;;;;10.50;9.70;;;;;;;23.86;27.15;94560.66;4901689;28;102679;-66
2021/12/02 06:49:22;;;;;;;12.23;11.07;;;;;;;24.11;26.72;94554.38;4901780;28;103365;-67
2021/12/02 06:51:47;;;;;;;11.40;10.50;;;;;;;24.56;26.51;94556.44;4897936;28;104614;-65
2021/12/02 06:54:13;;;;;;;10.53;9.73;;;;;;;24.80;26.11;94553.09;4901636;28;102917;-65
2021/12/02 06:56:38;;;;;;;10.87;9.97;;;;;;;24.84;26.27;94556.66;4902184;28;102829;-65
2021/12/02 06:59:04;;;;;;;11.10;10.10;;;;;;;25.06;25.39;94542.97;4901133;28;102759;-66
2021/12/02 07:01:29;;;;;;;11.10;10.13;;;;;;;25.07;25.76;94543.75;4900885;28;102859;-66
2021/12/02 07:03:54;;;;;;;11.20;10.10;;;;;;;25.04;25.29;94526.50;4896894;28;103463;-65
2021/12/02 07:06:20;;;;;;;10.93;9.93;;;;;;;25.03;25.31;94527.59;4901482;28;103448;-66
2021/12/02 07:08:45;;;;;;;9.97;9.00;;;;;;;24.96;25.88;94547.91;4904919;28;102838;-65
2021/12/02 07:11:11;;;;;;;10.30;9.50;;;;;;;24.47;26.12;94526.34;4904883;28;102820;-67
2021/12/02 07:13:38;;;;;;;10.03;9.27;;;;;;;24.30;26.97;94532.59;4900530;28;102859;-70
2021/12/02 07:16:04;;;;;;;10.03;9.20;;;;;;;24.18;26.54;94527.94;4920893;28;103335;-68
2021/12/02 07:18:35;;;;;;;10.70;9.80;;;;;;;24.13;26.82;94551.38;4906308;28;103411;-67
2021/12/02 07:21:01;;;;;;;10.47;9.57;;;;;;;24.06;26.75;94551.91;4906016;28;102802;-66
2021/12/02 07:23:26;;;;;;;10.17;9.37;;;;;;;24.09;26.58;94551.25;4904087;28;103341;-67
2021/12/02 07:25:52;;;;;;;10.80;9.90;;;;;;;24.09;26.99;94553.13;4901618;28;103152;-67
2021/12/02 07:28:18;;;;;;;10.10;9.30;;;;;;;24.17;27.13;94541.63;4919818;28;104168;-68
2021/12/02 07:30:50;;;;;;;10.30;9.50;;;;;;;24.16;26.81;94532.81;4903026;28;104519;-68
2021/12/02 07:33:15;;;;;;;10.97;10.07;;;;;;;24.10;26.97;94522.69;4895886;28;102750;-67
2021/12/02 07:35:41;;;;;;;10.20;9.40;;;;;;;24.13;27.24;94524.69;4881404;28;103274;-67
2021/12/02 07:38:07;;;;;;;11.20;10.10;;;;;;;24.16;26.86;94530.16;4885372;28;103462;-68
2021/12/02 07:40:34;;;;;;;9.97;9.17;;;;;;;24.14;26.79;94518.25;4885628;28;103942;-67
2021/12/02 07:43:00;;;;;;;10.20;9.33;;;;;;;24.31;26.63;94542.19;4885291;28;102815;-68
2021/12/02 07:45:31;;;;;;;10.37;9.53;;;;;;;24.36;27.23;94547.34;4885679;28;103254;-67
2021/12/02 07:47:57;;;;;;;10.80;9.90;;;;;;;24.40;27.07;94531.44;4880126;28;102796;-67
2021/12/02 07:50:22;;;;;;;11.07;10.03;;;;;;;24.46;27.36;94535.47;4883790;28;104882;-67
2021/12/02 07:52:51;;;;;;;11.60;10.60;;;;;;;24.50;26.90;94542.50;4885824;28;102667;-67
2021/12/02 07:55:17;;;;;;;11.50;10.50;;;;;;;24.51;27.16;94532.59;4886339;28;103211;-67
2021/12/02 07:57:44;;;;;;;11.70;10.60;;;;;;;24.53;27.06;94519.72;4895740;28;104385;-67
2021/12/02 08:00:13;;;;;;;12.87;11.57;;;;;;;24.54;27.51;94531.97;4884444;28;102787;-67
2021/12/02 08:02:42;;;;;;;12.80;11.67;;;;;;;24.45;26.99;94531.25;4882710;28;103648;-68
2021/12/02 08:05:08;;;;;;;12.57;11.57;;;;;;;24.51;27.17;94533.38;4885623;28;102935;-68
2021/12/02 08:07:34;;;;;;;12.60;11.50;;;;;;;24.50;27.59;94531.81;4884665;28;102755;-68
2021/12/02 08:10:01;;;;;;;12.73;11.73;;;;;;;24.51;27.53;94537.94;4894577;28;104558;-67
2021/12/02 08:12:28;;;;;;;13.07;12.07;;;;;;;24.54;27.29;94532.75;4898269;28;103558;-67
2021/12/02 08:14:53;;;;;;;13.30;12.10;;;;;;;24.52;27.48;94523.47;4885331;28;102839;-67
2021/12/02 08:17:19;;;;;;;13.03;12.03;;;;;;;24.56;27.77;94535.09;4898798;28;103167;-66
2021/12/02 08:19:44;;;;;;;12.90;11.90;;;;;;;24.57;27.26;94537.44;4880128;28;103671;-66
2021/12/02 08:22:10;;;;;;;14.47;13.23;;;;;;;24.55;27.27;94520.16;4884246;28;103169;-67
2021/12/02 08:24:35;;;;;;;13.70;12.60;;;;;;;24.57;27.26;94531.31;4884984;28;103331;-68
2021/12/02 08:27:01;;;;;;;13.43;12.33;;;;;;;24.46;27.90;94522.13;4884893;28;103231;-67
2021/12/02 08:29:26;;;;;;;14.10;12.97;;;;;;;24.50;27.55;94537.16;4884830;28;102882;-67
2021/12/02 08:31:52;;;;;;;13.20;12.10;;;;;;;24.49;27.76;94540.16;4894654;28;102783;-67
2021/12/02 08:34:18;;;;;;;13.37;12.27;;;;;;;24.42;28.02;94537.25;4901657;28;102884;-67
2021/12/02 08:36:51;;;;;;;13.83;12.73;;;;;;;24.42;28.09;94534.56;4902701;28;102746;-66
2021/12/02 08:39:25;;;;;;;13.73;12.50;;;;;;;24.38;27.64;94520.31;4904992;28;102749;-66
2021/12/02 08:41:53;;;;;;;12.60;11.50;;;;;;;24.29;27.75;94525.69;4899188;28;103112;-67
2021/12/02 08:44:19;;;;;;;12.80;11.77;;;;;;;24.26;28.08;94537.00;4902166;28;103640;-69
2021/12/02 08:46:48;;;;;;;13.10;12.10;;;;;;;24.19;27.75;94515.41;4899227;28;102953;-67
2021/12/02 08:49:18;;;;;;;13.90;12.60;;;;;;;24.18;27.67;94514.59;4884580;28;102686;-68
2021/12/02 08:51:45;;;;;;;12.53;11.47;;;;;;;24.19;28.23;94526.88;4885097;28;102830;-67
2021/12/02 08:54:12;;;;;;;12.60;11.60;;;;;;;24.20;27.72;94523.09;4879848;28;102989;-66
2021/12/02 08:56:38;;;;;;;12.27;11.20;;;;;;;24.21;28.28;94519.31;4885423;28;102808;-66
2021/12/02 08:59:04;;;;;;;13.00;11.90;;;;;;;24.20;28.10;94509.75;4899189;28;105746;-67
2021/12/02 09:01:30;;;;;;;12.40;11.40;;;;;;;24.24;27.85;94502.63;4883685;28;103171;-68
2021/12/02 09:03:56;;;;;;;11.90;10.90;;;;;;;24.21;27.78;94500.63;4879932;28;102971;-67
2021/12/02 09:06:25;;;;;;;12.80;11.70;;;;;;;24.20;28.23;94493.72;4883845;28;102845;-67
2021/12/02 09:08:56;;;;;;;12.40;11.40;;;;;;;24.23;27.75;94509.09;4882586;28;104106;-67
2021/12/02 09:11:21;;;;;;;11.50;10.60;;;;;;;24.21;28.02;94497.94;4884310;28;102820;-67
2021/12/02 09:13:47;;;;;;;11.93;10.93;;;;;;;24.24;27.96;94497.28;4884625;28;103798;-68
2021/12/02 09:16:13;;;;;;;12.73;11.63;;;;;;;24.25;27.75;94493.50;4879047;28;103508;-67
2021/12/02 09:18:39;;;;;;;11.00;10.10;;;;;;;24.25;27.87;94477.50;4885136;28;103344;-67
2021/12/02 09:21:05;;;;;;;12.67;11.70;;;;;;;24.25;28.07;94476.72;4882186;28;103025;-66
2021/12/02 09:23:31;;;;;;;12.03;11.03;;;;;;;24.19;27.96;94465.47;4883996;28;102944;-68
2021/12/02 09:25:57;;;;;;;11.53;10.63;;;;;;;24.25;27.74;94474.81;4880074;28;103614;-67
2021/12/02 09:28:22;;;;;;;10.90;10.00;;;;;;;24.27;27.79;94472.59;4883955;28;102781;-67
2021/12/02 09:30:48;;;;;;;11.00;10.10;;;;;;;24.32;28.01;94470.88;4898325;28;104764;-67
2021/12/02 09:33:14;;;;;;;11.20;10.30;;;;;;;24.32;27.78;94465.53;4891017;28;102861;-68
2021/12/02 09:35:39;;;;;;;10.83;9.93;;;;;;;24.28;27.72;94460.81;4902656;28;103186;-69
2021/12/02 09:38:08;;;;;;;11.40;10.37;;;;;;;24.25;28.17;94458.81;4898188;28;103645;-67
2021/12/02 09:40:36;;;;;;;11.17;10.20;;;;;;;24.33;28.00;94461.75;4903188;28;102859;-68
2021/12/02 09:43:03;;;;;;;10.80;10.00;;;;;;;24.37;27.63;94460.78;4903942;28;102857;-70
2021/12/02 09:45:28;;;;;;;10.70;9.80;;;;;;;24.38;27.97;94459.69;4903110;28;103370;-69
2021/12/02 09:47:55;;;;;;;10.27;9.47;;;;;;;24.38;28.19;94461.56;4897002;28;102814;-68
2021/12/02 09:50:32;;;;;;;10.43;9.63;;;;;;;24.41;27.95;94447.56;4901779;28;102926;-67
2021/12/02 09:53:06;;;;;;;10.07;9.20;;;;;;;24.39;27.67;94429.19;4901510;28;103044;-66
2021/12/02 09:55:41;;;;;;;10.50;9.60;;;;;;;24.41;28.02;94437.66;4903695;28;102748;-68
2021/12/02 09:58:11;;;;;;;10.33;9.53;;;;;;;24.40;27.93;94435.31;4901587;28;103294;-67
2021/12/02 10:00:43;;;;;;;9.10;8.40;;;;;;;24.43;27.82;94435.44;4897669;28;103346;-67
2021/12/02 10:03:25;;;;;;;10.17;9.37;;;;;;;24.43;27.70;94442.66;4901109;28;102914;-67
2021/12/02 10:06:05;;;;;;;10.00;9.20;;;;;;;24.46;27.63;94425.97;4901872;28;103353;-67
2021/12/02 10:08:41;;;;;;;9.70;8.90;;;;;;;24.41;27.66;94418.19;4902671;28;102694;-67
2021/12/02 10:11:09;;;;;;;9.33;8.57;;;;;;;24.37;28.17;94423.41;4897013;28;102832;-67
2021/12/02 10:13:50;;;;;;;9.50;8.77;;;;;;;24.42;27.69;94422.41;4902142;28;102827;-66
2021/12/02 10:16:25;;;;;;;9.20;8.50;;;;;;;24.43;28.26;94408.72;4900190;28;103029;-66
2021/12/02 10:19:06;;;;;;;9.47;8.77;;;;;;;24.38;28.17;94400.16;4902013;28;102802;-67
2021/12/02 10:24:06;;;;;;;8.80;8.10;;;;;;;24.40;28.09;94413.97;4900473;28;102811;-67
2021/12/02 10:26:38;;;;;;;9.60;8.80;;;;;;;24.42;27.76;94398.38;4900449;28;106053;-67
2021/12/02 10:29:13;;;;;;;8.70;8.00;;;;;;;24.45;28.15;94403.06;4901546;28;102824;-67
2021/12/02 10:31:38;;;;;;;9.27;8.43;;;;;;;24.43;28.03;94410.63;4900197;28;102795;-67
2021/12/02 10:34:07;;;;;;;8.80;8.10;;;;;;;24.45;28.36;94392.38;4885096;28;102779;-67
2021/12/02 10:36:39;;;;;;;9.20;8.40;;;;;;;24.39;28.13;94364.34;4896926;28;104543;-66
2021/12/02 10:39:23;;;;;;;8.27;7.50;;;;;;;24.49;28.04;94385.25;4883190;28;102756;-67
2021/12/02 10:42:05;;;;;;;8.60;8.00;;;;;;;24.51;27.75;94383.81;4881710;28;103204;-66
2021/12/02 10:44:35;;;;;;;9.10;8.30;;;;;;;24.49;28.18;94378.03;4878121;28;102903;-67
2021/12/02 10:47:09;;;;;;;8.13;7.53;;;;;;;24.57;28.16;94381.72;4882496;28;102960;-66
2021/12/02 10:49:41;;;;;;;8.70;8.00;;;;;;;24.52;27.91;94365.91;4883050;28;103551;-66
2021/12/02 10:52:20;;;;;;;7.60;7.00;;;;;;;24.55;27.64;94357.25;4883098;28;102714;-66
2021/12/02 10:54:51;;;;;;;8.80;8.10;;;;;;;24.60;28.12;94357.03;4878230;28;102812;-66
2021/12/02 10:57:22;;;;;;;8.70;8.00;;;;;;;24.51;27.81;94346.44;4897143;28;104303;-66
2021/12/02 10:59:50;;;;;;;7.63;7.03;;;;;;;24.50;27.90;94350.22;4882491;28;103726;-66
2021/12/02 11:02:27;;;;;;;8.17;7.57;;;;;;;24.49;28.09;94343.31;4882309;28;103554;-66
2021/12/02 11:05:00;;;;;;;7.50;6.90;;;;;;;24.46;27.89;94346.66;4892250;28;103020;-66
2021/12/02 11:07:30;;;;;;;7.37;6.77;;;;;;;24.42;27.93;94336.97;4881437;28;102855;-66
2021/12/02 11:10:01;;;;;;;7.33;6.73;;;;;;;24.43;28.48;94336.63;4898226;28;104384;-68
2021/12/02 11:12:31;;;;;;;7.70;7.10;;;;;;;24.37;28.21;94324.63;4882654;28;102864;-66
2021/12/02 11:15:01;;;;;;;7.37;6.77;;;;;;;24.40;28.27;94331.19;4883073;28;103036;-67
2021/12/02 11:17:33;;;;;;;7.30;6.70;;;;;;;24.32;27.99;94329.38;4877011;28;103231;-66
2021/12/02 11:20:07;;;;;;;7.07;6.57;;;;;;;24.33;28.40;94337.03;4882165;28;102862;-67
2021/12/02 11:22:32;;;;;;;6.53;6.10;;;;;;;24.34;28.37;94340.50;4882168;28;103310;-66
2021/12/02 11:24:59;;;;;;;7.23;6.63;;;;;;;24.33;28.40;94325.59;4896723;28;102894;-66
2021/12/02 11:27:28;;;;;;;7.00;6.40;;;;;;;24.30;28.58;94322.47;4877760;28;103802;-66